Time;durP1;ratioP1;P1;durP2;ratioP2;P2;SDS_P1;SDS_P2;PMS_P1;PMS_P2;Temp;Humidity;BMP_temperature;BMP_pressure;BME280_temperature;BME280_humidity;BME280_pressure;Samples;Min_cycle;Max_cycle;Signal;HPM_P1;HPM_P2
2023/03/20 00:00:49;;;;;;;16.02;8.77;;;;;;;;;;5038270;28;20174;-78
2023/03/20 00:03:14;;;;;;;18.33;8.68;;;;;;;;;;5037941;28;20032;-78
2023/03/20 00:05:40;;;;;;;14.15;8.02;;;;;;;;;;5038901;28;20044;-78
2023/03/20 00:08:05;;;;;;;16.08;8.93;;;;;;;;;;5064723;28;20059;-78
2023/03/20 00:10:38;;;;;;;15.80;8.57;;;;;;;;;;5052751;28;20406;-78
2023/03/20 00:13:03;;;;;;;14.93;8.20;;;;;;;;;;5053465;28;20044;-78
2023/03/20 00:15:30;;;;;;;17.00;9.15;;;;;;;;;;5038079;28;20032;-78
2023/03/20 00:17:55;;;;;;;16.10;8.52;;;;;;;;;;5037594;28;20040;-78
2023/03/20 00:20:21;;;;;;;17.75;8.68;;;;;;;;;;5037080;28;20368;-77
2023/03/20 00:22:46;;;;;;;17.95;8.23;;;;;;;;;;5071017;28;20032;-77
2023/03/20 00:25:16;;;;;;;16.75;9.52;;;;;;;;;;5053879;28;20483;-77
2023/03/20 00:27:42;;;;;;;15.73;8.80;;;;;;;;;;5017545;28;20068;-78
2023/03/20 00:30:28;;;;;;;14.15;8.43;;;;;;;;;;5063178;28;20041;-77
2023/03/20 00:32:54;;;;;;;14.68;8.95;;;;;;;;;;5065784;28;20055;-78
2023/03/20 00:35:29;;;;;;;18.67;9.23;;;;;;;;;;5052808;28;20032;-78
2023/03/20 00:37:55;;;;;;;18.55;10.73;;;;;;;;;;5052849;28;20067;-78
2023/03/20 00:40:20;;;;;;;17.55;10.00;;;;;;;;;;5036846;28;20072;-78
2023/03/20 00:42:50;;;;;;;17.17;9.55;;;;;;;;;;5036581;28;20068;-78
2023/03/20 00:45:16;;;;;;;19.80;10.00;;;;;;;;;;5033741;28;20488;-77
2023/03/20 00:47:43;;;;;;;17.08;9.95;;;;;;;;;;5068542;28;20033;-78
2023/03/20 00:50:14;;;;;;;18.83;9.55;;;;;;;;;;5036931;28;20025;-78
2023/03/20 00:52:39;;;;;;;18.38;9.35;;;;;;;;;;5036616;28;20028;-78
2023/03/20 00:55:05;;;;;;;21.60;10.38;;;;;;;;;;5033685;28;20549;-78
2023/03/20 00:57:34;;;;;;;18.52;9.75;;;;;;;;;;5051337;28;20029;-78
2023/03/20 01:00:03;;;;;;;17.40;10.70;;;;;;;;;;5053482;28;20040;-78
2023/03/20 01:02:29;;;;;;;18.70;9.40;;;;;;;;;;5054509;28;20161;-78
2023/03/20 01:04:55;;;;;;;19.27;10.02;;;;;;;;;;5053522;28;20112;-78
2023/03/20 01:07:21;;;;;;;16.23;10.13;;;;;;;;;;5056030;28;20037;-79
2023/03/20 01:09:46;;;;;;;16.92;9.80;;;;;;;;;;5069573;28;20058;-79
2023/03/20 01:12:12;;;;;;;19.95;10.27;;;;;;;;;;5067960;28;20028;-79
2023/03/20 01:14:39;;;;;;;16.48;8.70;;;;;;;;;;5069521;28;20040;-78
2023/03/20 01:17:05;;;;;;;18.30;9.77;;;;;;;;;;5067997;28;20033;-78
2023/03/20 01:19:30;;;;;;;16.20;9.15;;;;;;;;;;5038913;28;20032;-78
2023/03/20 01:21:56;;;;;;;26.20;9.90;;;;;;;;;;5067878;28;20047;-78
2023/03/20 01:24:21;;;;;;;17.98;9.50;;;;;;;;;;5082347;28;20032;-78
2023/03/20 01:26:48;;;;;;;17.98;10.00;;;;;;;;;;5068193;28;20059;-78
2023/03/20 01:29:13;;;;;;;15.13;8.73;;;;;;;;;;5069138;28;20124;-80
2023/03/20 01:31:39;;;;;;;15.10;9.50;;;;;;;;;;5067900;28;20115;-79
2023/03/20 01:34:05;;;;;;;17.75;8.90;;;;;;;;;;5055485;28;20036;-78
2023/03/20 01:36:31;;;;;;;17.02;9.18;;;;;;;;;;5051281;28;20038;-78
2023/03/20 01:38:56;;;;;;;16.83;8.93;;;;;;;;;;5068788;28;20024;-78
2023/03/20 01:41:22;;;;;;;;;;;;;;;;;;5052136;28;20054;-78
2023/03/20 01:43:47;;;;;;;16.35;9.50;;;;;;;;;;5069275;28;19909;-78
2023/03/20 01:46:24;;;;;;;15.65;8.95;;;;;;;;;;5068633;28;20024;-77
2023/03/20 01:48:55;;;;;;;16.17;9.10;;;;;;;;;;5071529;28;20451;-79
2023/03/20 01:51:34;;;;;;;15.20;8.75;;;;;;;;;;5039903;28;20089;-78
2023/03/20 01:54:06;;;;;;;15.40;8.35;;;;;;;;;;5045846;28;20040;-78
2023/03/20 01:56:42;;;;;;;18.65;9.35;;;;;;;;;;5039480;28;20033;-78
2023/03/20 01:59:09;;;;;;;14.80;8.80;;;;;;;;;;5025274;28;20041;-78
2023/03/20 02:01:35;;;;;;;17.55;9.32;;;;;;;;;;5050939;28;20032;-78
2023/03/20 02:04:01;;;;;;;;;;;;;;;;;;5035828;28;20126;-79
2023/03/20 02:06:48;;;;;;;18.10;9.50;;;;;;;;;;5069809;28;19908;-78
2023/03/20 02:09:22;;;;;;;17.00;10.02;;;;;;;;;;5040682;28;20036;-78
2023/03/20 02:11:48;;;;;;;;;;;;;;;;;;5039462;28;20036;-77
2023/03/20 02:14:16;;;;;;;15.30;8.77;;;;;;;;;;5055821;28;20034;-77
2023/03/20 02:16:52;;;;;;;15.82;9.10;;;;;;;;;;5057130;28;20415;-78
2023/03/20 02:19:28;;;;;;;19.77;9.23;;;;;;;;;;5048596;28;20040;-78
2023/03/20 02:21:57;;;;;;;15.48;9.30;;;;;;;;;;5041717;28;20042;-78
2023/03/20 02:24:49;;;;;;;17.17;9.30;;;;;;;;;;5069814;28;20104;-78
2023/03/20 02:27:19;;;;;;;16.88;9.13;;;;;;;;;;5051452;28;20486;-78
2023/03/20 02:29:54;;;;;;;14.40;8.60;;;;;;;;;;5056034;28;20126;-78
2023/03/20 02:32:22;;;;;;;17.70;9.48;;;;;;;;;;5055860;28;20037;-78
2023/03/20 02:35:07;;;;;;;16.15;9.10;;;;;;;;;;5038875;28;20058;-79
2023/03/20 02:37:47;;;;;;;15.35;9.50;;;;;;;;;;5039886;28;20033;-79
2023/03/20 02:40:20;;;;;;;17.15;9.43;;;;;;;;;;5054877;28;20514;-79
2023/03/20 02:42:57;;;;;;;15.18;9.02;;;;;;;;;;5046071;28;20055;-80
2023/03/20 02:45:23;;;;;;;16.67;9.32;;;;;;;;;;5054534;28;20027;-80
2023/03/20 02:48:01;;;;;;;15.65;9.07;;;;;;;;;;5071857;28;20044;-78
2023/03/20 02:50:33;;;;;;;16.17;9.55;;;;;;;;;;5046583;28;20040;-78
2023/03/20 02:53:07;;;;;;;17.73;9.05;;;;;;;;;;5071423;28;20123;-80
2023/03/20 02:55:36;;;;;;;15.68;9.38;;;;;;;;;;5071383;28;20070;-79
2023/03/20 02:58:08;;;;;;;17.50;8.90;;;;;;;;;;5041598;28;20929;-80
2023/03/20 03:00:35;;;;;;;17.27;9.80;;;;;;;;;;5044149;28;20445;-79
2023/03/20 03:03:10;;;;;;;16.30;9.43;;;;;;;;;;5071120;28;20021;-79
2023/03/20 03:05:39;;;;;;;16.83;9.38;;;;;;;;;;5046697;28;20388;-80
2023/03/20 03:08:05;;;;;;;15.68;9.75;;;;;;;;;;5054313;28;20373;-79
2023/03/20 03:10:35;;;;;;;18.63;10.10;;;;;;;;;;5054616;28;20036;-78
2023/03/20 03:13:01;;;;;;;18.52;10.23;;;;;;;;;;5070329;28;20056;-79
2023/03/20 03:15:28;;;;;;;21.60;9.93;;;;;;;;;;5054636;28;20036;-79
2023/03/20 03:17:54;;;;;;;19.02;9.90;;;;;;;;;;5053252;28;20020;-79
2023/03/20 03:20:23;;;;;;;17.35;10.43;;;;;;;;;;5070907;28;20475;-79
2023/03/20 03:22:49;;;;;;;16.55;9.40;;;;;;;;;;5074538;28;20395;-79
2023/03/20 03:25:15;;;;;;;17.00;9.38;;;;;;;;;;5041819;28;20091;-79
2023/03/20 03:27:41;;;;;;;18.98;9.27;;;;;;;;;;5050720;28;20033;-80
2023/03/20 03:30:11;;;;;;;19.23;9.32;;;;;;;;;;5054090;28;20440;-79
2023/03/20 03:32:43;;;;;;;15.98;8.88;;;;;;;;;;5044736;28;20468;-78
2023/03/20 03:35:09;;;;;;;15.45;9.20;;;;;;;;;;5054056;28;20029;-79
2023/03/20 03:37:34;;;;;;;15.35;9.05;;;;;;;;;;5054304;28;20031;-79
2023/03/20 03:40:06;;;;;;;17.38;9.70;;;;;;;;;;5070780;28;20044;-79
2023/03/20 03:42:34;;;;;;;17.80;9.75;;;;;;;;;;5070653;28;20016;-79
2023/03/20 03:45:20;;;;;;;19.00;10.00;;;;;;;;;;5070157;28;20530;-79
2023/03/20 03:47:49;;;;;;;18.67;9.98;;;;;;;;;;5034147;28;20543;-78
2023/03/20 03:50:25;;;;;;;15.07;9.05;;;;;;;;;;5052640;28;20024;-79
2023/03/20 03:52:57;;;;;;;21.35;9.85;;;;;;;;;;5034800;28;20032;-79
2023/03/20 03:55:27;;;;;;;25.17;10.75;;;;;;;;;;5021451;28;20082;-79
2023/03/20 03:58:09;;;;;;;19.17;10.20;;;;;;;;;;5039489;28;20032;-78
2023/03/20 04:00:35;;;;;;;18.05;10.57;;;;;;;;;;5034056;28;20037;-78
2023/03/20 04:03:01;;;;;;;;;;;;;;;;;;5037459;28;20035;-78
2023/03/20 04:05:30;;;;;;;22.63;10.95;;;;;;;;;;5049625;28;20296;-79
2023/03/20 04:07:57;;;;;;;26.58;11.55;;;;;;;;;;5065740;28;20031;-80
2023/03/20 04:10:22;;;;;;;26.58;13.15;;;;;;;;;;5043503;28;20035;-80
2023/03/20 04:12:48;;;;;;;26.10;11.60;;;;;;;;;;5038687;28;20021;-78
2023/03/20 04:15:14;;;;;;;27.73;12.77;;;;;;;;;;5018304;28;20048;-78
2023/03/20 04:17:40;;;;;;;23.58;12.10;;;;;;;;;;5052568;28;20535;-77
2023/03/20 04:20:07;;;;;;;21.17;11.60;;;;;;;;;;5050474;28;20119;-77
2023/03/20 04:22:33;;;;;;;20.23;11.68;;;;;;;;;;5045200;28;20452;-78
2023/03/20 04:25:05;;;;;;;27.60;12.02;;;;;;;;;;5034660;28;20532;-79
2023/03/20 04:27:30;;;;;;;21.38;11.40;;;;;;;;;;5033948;28;20024;-79
2023/03/20 04:29:56;;;;;;;26.92;12.65;;;;;;;;;;5050396;28;20522;-78
2023/03/20 04:32:51;;;;;;;21.63;12.40;;;;;;;;;;5049891;28;20046;-78
2023/03/20 04:35:26;;;;;;;23.70;11.68;;;;;;;;;;5069166;28;20025;-77
2023/03/20 04:37:57;;;;;;;21.42;11.95;;;;;;;;;;5056238;28;20066;-77
2023/03/20 04:40:23;;;;;;;22.58;12.13;;;;;;;;;;5049300;28;20047;-79
2023/03/20 04:42:50;;;;;;;22.77;11.88;;;;;;;;;;5052168;28;20037;-79
2023/03/20 04:45:16;;;;;;;23.48;12.50;;;;;;;;;;5065905;28;20024;-79
2023/03/20 04:47:42;;;;;;;22.25;11.63;;;;;;;;;;5060593;28;20023;-79
2023/03/20 04:50:08;;;;;;;24.98;12.70;;;;;;;;;;5064941;28;20064;-80
2023/03/20 04:52:34;;;;;;;21.00;12.63;;;;;;;;;;5072336;28;20036;-82
2023/03/20 04:55:00;;;;;;;25.33;12.80;;;;;;;;;;5066483;28;20029;-81
2023/03/20 04:57:27;;;;;;;23.23;13.05;;;;;;;;;;5063512;28;20016;-80
2023/03/20 04:59:53;;;;;;;27.25;13.00;;;;;;;;;;5036076;28;20028;-83
2023/03/20 05:02:18;;;;;;;24.45;13.63;;;;;;;;;;5021050;28;20081;-82
2023/03/20 05:04:44;;;;;;;25.65;13.63;;;;;;;;;;5054417;28;20450;-79
2023/03/20 05:07:10;;;;;;;27.15;14.88;;;;;;;;;;5068685;28;20032;-80
2023/03/20 05:09:46;;;;;;;26.77;14.50;;;;;;;;;;5059211;28;20048;-81
2023/03/20 05:12:13;;;;;;;28.58;14.23;;;;;;;;;;5024801;28;20403;-80
2023/03/20 05:14:57;;;;;;;23.55;13.55;;;;;;;;;;5059976;28;20035;-81
2023/03/20 05:17:37;;;;;;;24.55;14.68;;;;;;;;;;5059901;28;20047;-80
2023/03/20 05:20:17;;;;;;;23.08;14.43;;;;;;;;;;5057619;28;20098;-81
2023/03/20 05:23:09;;;;;;;22.45;13.77;;;;;;;;;;5057226;28;20040;-80
2023/03/20 05:25:54;;;;;;;28.52;15.07;;;;;;;;;;5047105;28;20495;-80
2023/03/20 05:28:31;;;;;;;26.70;14.27;;;;;;;;;;5059438;28;20056;-82
2023/03/20 05:31:14;;;;;;;27.98;15.00;;;;;;;;;;5065128;28;20487;-81
2023/03/20 05:33:53;;;;;;;32.85;15.18;;;;;;;;;;5061217;28;20395;-81
2023/03/20 05:36:39;;;;;;;27.85;16.42;;;;;;;;;;5055274;28;20127;-80
2023/03/20 05:39:27;;;;;;;32.13;14.98;;;;;;;;;;5050462;28;20033;-80
2023/03/20 05:42:22;;;;;;;31.30;17.98;;;;;;;;;;5048912;28;20086;-82
2023/03/20 05:45:06;;;;;;;32.63;19.30;;;;;;;;;;5045611;28;20043;-80
2023/03/20 05:47:50;;;;;;;30.60;18.60;;;;;;;;;;5075127;28;20047;-81
2023/03/20 05:50:31;;;;;;;31.65;18.20;;;;;;;;;;5074803;28;20055;-81
2023/03/20 05:53:15;;;;;;;29.15;17.48;;;;;;;;;;5062650;28;20071;-82
2023/03/20 05:55:49;;;;;;;33.97;17.40;;;;;;;;;;5041259;28;20032;-80
2023/03/20 05:58:35;;;;;;;27.17;16.15;;;;;;;;;;5075557;28;20161;-81
2023/03/20 06:01:04;;;;;;;33.80;17.75;;;;;;;;;;5058198;28;20078;-82
2023/03/20 06:03:55;;;;;;;30.33;17.75;;;;;;;;;;5071355;28;20032;-81
2023/03/20 06:06:40;;;;;;;29.83;17.35;;;;;;;;;;5059445;28;20040;-82
2023/03/20 06:09:06;;;;;;;28.58;14.82;;;;;;;;;;5040112;28;20198;-80
2023/03/20 06:11:32;;;;;;;26.17;14.80;;;;;;;;;;5023700;28;20138;-81
2023/03/20 06:13:58;;;;;;;26.38;14.02;;;;;;;;;;5056957;28;20047;-82
2023/03/20 06:16:33;;;;;;;25.55;15.45;;;;;;;;;;5044754;28;20123;-81
2023/03/20 06:18:59;;;;;;;24.27;14.20;;;;;;;;;;5039067;28;20526;-82
2023/03/20 06:21:25;;;;;;;25.90;14.35;;;;;;;;;;5036678;28;20438;-81
2023/03/20 06:23:53;;;;;;;24.50;13.43;;;;;;;;;;5052090;28;20032;-81
2023/03/20 06:26:21;;;;;;;23.42;13.90;;;;;;;;;;5057446;28;20025;-81
2023/03/20 06:29:12;;;;;;;23.08;13.90;;;;;;;;;;5069394;28;20115;-81
2023/03/20 06:31:38;;;;;;;21.60;12.88;;;;;;;;;;5039785;28;20518;-82
2023/03/20 06:34:06;;;;;;;20.50;13.25;;;;;;;;;;5037826;28;20033;-81
2023/03/20 06:36:37;;;;;;;20.63;11.88;;;;;;;;;;5041793;28;20070;-82
2023/03/20 06:39:08;;;;;;;20.35;12.70;;;;;;;;;;5041175;28;20040;-81
2023/03/20 06:41:35;;;;;;;17.48;10.77;;;;;;;;;;5036875;28;20033;-83
2023/03/20 06:44:05;;;;;;;17.75;10.80;;;;;;;;;;5041268;28;20541;-81
2023/03/20 06:46:51;;;;;;;15.38;9.60;;;;;;;;;;5073835;28;20166;-82
2023/03/20 06:49:16;;;;;;;18.05;10.15;;;;;;;;;;5056796;28;20126;-82
2023/03/20 06:51:44;;;;;;;17.52;10.20;;;;;;;;;;5057328;28;20028;-82
2023/03/20 06:54:09;;;;;;;15.73;9.98;;;;;;;;;;5056074;28;20379;-82
2023/03/20 06:56:35;;;;;;;19.48;10.63;;;;;;;;;;5045177;28;20032;-81
2023/03/20 06:59:00;;;;;;;20.05;10.45;;;;;;;;;;5082533;28;20044;-82
2023/03/20 07:01:27;;;;;;;16.83;9.88;;;;;;;;;;5055080;28;20055;-82
2023/03/20 07:03:52;;;;;;;16.02;10.00;;;;;;;;;;5055833;28;20430;-82
2023/03/20 07:06:24;;;;;;;15.88;9.43;;;;;;;;;;5069110;28;20020;-81
2023/03/20 07:08:51;;;;;;;17.60;10.27;;;;;;;;;;5047827;28;20032;-81
2023/03/20 07:11:18;;;;;;;14.85;8.20;;;;;;;;;;5056300;28;20031;-81
2023/03/20 07:13:43;;;;;;;13.95;7.60;;;;;;;;;;5071807;28;20032;-81
2023/03/20 07:16:22;;;;;;;15.57;7.53;;;;;;;;;;5045035;28;20019;-81
2023/03/20 07:18:48;;;;;;;20.35;13.48;;;;;;;;;;5061898;28;20058;-81
2023/03/20 07:21:18;;;;;;;10.93;6.68;;;;;;;;;;5035413;28;20028;-81
2023/03/20 07:23:43;;;;;;;10.60;6.30;;;;;;;;;;5021460;28;20078;-81
2023/03/20 07:26:10;;;;;;;;;;;;;;;;;;5035522;28;20237;-82
2023/03/20 07:28:35;;;;;;;9.27;5.85;;;;;;;;;;5059398;28;19971;-81
2023/03/20 07:31:31;;;;;;;11.27;6.40;;;;;;;;;;5047175;28;20033;-82
2023/03/20 07:34:12;;;;;;;9.93;6.00;;;;;;;;;;5067998;28;20035;-81
2023/03/20 07:36:40;;;;;;;10.95;5.97;;;;;;;;;;5053853;28;20028;-81
2023/03/20 07:39:07;;;;;;;9.57;6.00;;;;;;;;;;5035150;28;20031;-82
2023/03/20 07:41:34;;;;;;;11.75;6.55;;;;;;;;;;5034979;28;20068;-81
2023/03/20 07:44:09;;;;;;;16.50;6.88;;;;;;;;;;5066559;28;20399;-81
2023/03/20 07:46:46;;;;;;;9.90;6.13;;;;;;;;;;5053641;28;20132;-81
2023/03/20 07:49:30;;;;;;;10.02;6.25;;;;;;;;;;5057331;28;20518;-81
2023/03/20 07:51:55;;;;;;;9.35;6.03;;;;;;;;;;5053402;28;20032;-82
2023/03/20 07:54:21;;;;;;;8.32;5.80;;;;;;;;;;5062253;28;20028;-83
2023/03/20 07:56:47;;;;;;;8.63;5.75;;;;;;;;;;5069708;28;20038;-82
2023/03/20 07:59:12;;;;;;;8.25;5.55;;;;;;;;;;5063170;28;20089;-82
2023/03/20 08:01:38;;;;;;;8.90;5.65;;;;;;;;;;5038089;28;20085;-82
2023/03/20 08:04:03;;;;;;;7.75;5.20;;;;;;;;;;5070808;28;20032;-82
2023/03/20 08:06:29;;;;;;;11.75;5.10;;;;;;;;;;5070504;28;20065;-82
2023/03/20 08:08:54;;;;;;;8.80;5.57;;;;;;;;;;5042782;28;20032;-82
2023/03/20 08:11:20;;;;;;;8.15;5.50;;;;;;;;;;5034048;28;20212;-82
2023/03/20 08:13:45;;;;;;;8.82;5.53;;;;;;;;;;5046284;28;20043;-83
2023/03/20 08:16:11;;;;;;;9.90;5.32;;;;;;;;;;5055368;28;20123;-82
2023/03/20 08:18:36;;;;;;;11.52;7.10;;;;;;;;;;5054631;28;20129;-82
2023/03/20 08:21:02;;;;;;;12.75;6.25;;;;;;;;;;5054742;28;20556;-82
2023/03/20 08:23:27;;;;;;;10.18;6.43;;;;;;;;;;5054336;28;20070;-83
2023/03/20 08:25:56;;;;;;;10.38;5.55;;;;;;;;;;5053760;28;20085;-81
2023/03/20 08:28:21;;;;;;;12.75;5.38;;;;;;;;;;5038612;28;20502;-81
2023/03/20 08:30:47;;;;;;;11.98;5.32;;;;;;;;;;5071659;28;20033;-81
2023/03/20 08:33:12;;;;;;;9.63;5.40;;;;;;;;;;5071963;28;20036;-84
2023/03/20 08:35:38;;;;;;;9.05;4.88;;;;;;;;;;5055209;28;20028;-81
2023/03/20 08:38:03;;;;;;;10.05;4.78;;;;;;;;;;5054704;28;20471;-84
2023/03/20 08:40:29;;;;;;;6.57;4.40;;;;;;;;;;5053168;28;20546;-82
2023/03/20 08:42:55;;;;;;;7.20;4.40;;;;;;;;;;5021375;28;20032;-82
2023/03/20 08:45:21;;;;;;;6.70;4.55;;;;;;;;;;5051336;28;20029;-83
2023/03/20 08:47:47;;;;;;;6.25;4.07;;;;;;;;;;5054121;28;20032;-83
2023/03/20 08:50:13;;;;;;;7.57;4.07;;;;;;;;;;5073344;28;20024;-81
2023/03/20 08:52:42;;;;;;;8.15;4.10;;;;;;;;;;5080831;28;20548;-83
2023/03/20 08:55:09;;;;;;;6.63;4.15;;;;;;;;;;5034329;28;20120;-81
2023/03/20 08:57:34;;;;;;;8.27;4.50;;;;;;;;;;5065597;28;20391;-83
2023/03/20 09:00:00;;;;;;;5.43;3.50;;;;;;;;;;5060256;28;20032;-82
2023/03/20 09:02:25;;;;;;;6.38;3.78;;;;;;;;;;5058354;28;20039;-83
2023/03/20 09:04:51;;;;;;;6.53;3.30;;;;;;;;;;5075984;28;20035;-81
2023/03/20 09:07:16;;;;;;;5.18;3.20;;;;;;;;;;5076016;28;20471;-81
2023/03/20 09:09:42;;;;;;;6.65;3.88;;;;;;;;;;5076096;28;20819;-80
2023/03/20 09:12:07;;;;;;;6.15;3.40;;;;;;;;;;5075673;28;20035;-82
2023/03/20 09:14:33;;;;;;;6.57;3.55;;;;;;;;;;5075346;28;20036;-81
2023/03/20 09:16:58;;;;;;;6.18;3.67;;;;;;;;;;5059227;28;20111;-81
2023/03/20 09:19:24;;;;;;;5.70;3.80;;;;;;;;;;5074705;28;20387;-81
2023/03/20 09:21:50;;;;;;;6.82;3.58;;;;;;;;;;5058419;28;20025;-82
2023/03/20 09:24:15;;;;;;;6.10;3.45;;;;;;;;;;5039044;28;20039;-83
2023/03/20 09:26:41;;;;;;;6.95;3.75;;;;;;;;;;5068268;28;20025;-81
2023/03/20 09:29:06;;;;;;;8.13;3.80;;;;;;;;;;5058563;28;20036;-81
2023/03/20 09:31:32;;;;;;;7.95;3.70;;;;;;;;;;5075058;28;20032;-82
2023/03/20 09:33:57;;;;;;;5.57;3.75;;;;;;;;;;5074748;28;20385;-83
2023/03/20 09:36:23;;;;;;;6.88;3.97;;;;;;;;;;5058016;28;20043;-82
2023/03/20 09:38:48;;;;;;;6.32;4.00;;;;;;;;;;5074970;28;20032;-82
2023/03/20 09:41:19;;;;;;;5.40;3.58;;;;;;;;;;5057248;28;20079;-82
2023/03/20 09:43:57;;;;;;;5.00;3.22;;;;;;;;;;5058916;28;20518;-82
2023/03/20 09:46:26;;;;;;;5.70;3.40;;;;;;;;;;5038950;28;20033;-82
2023/03/20 09:49:00;;;;;;;6.00;2.90;;;;;;;;;;5075535;28;20028;-83
2023/03/20 09:51:44;;;;;;;5.40;3.20;;;;;;;;;;5057714;28;20407;-83
2023/03/20 09:54:17;;;;;;;5.43;3.10;;;;;;;;;;5057876;28;20043;-83
2023/03/20 09:56:43;;;;;;;6.20;3.70;;;;;;;;;;5037706;28;20086;-83
2023/03/20 09:59:10;;;;;;;4.72;2.90;;;;;;;;;;5066720;28;20067;-81
2023/03/20 10:01:41;;;;;;;4.45;2.88;;;;;;;;;;5056746;28;20024;-83
2023/03/20 10:04:07;;;;;;;5.45;3.10;;;;;;;;;;5056909;28;20032;-81
2023/03/20 10:06:33;;;;;;;4.72;3.17;;;;;;;;;;5074443;28;20031;-83
2023/03/20 10:08:58;;;;;;;5.68;3.22;;;;;;;;;;5056587;28;20033;-83
2023/03/20 10:11:42;;;;;;;4.78;3.40;;;;;;;;;;5070353;28;20394;-84
2023/03/20 10:14:11;;;;;;;4.82;3.80;;;;;;;;;;5072723;28;20040;-81
2023/03/20 10:16:37;;;;;;;4.97;3.70;;;;;;;;;;5072258;28;20111;-83
2023/03/20 10:19:02;;;;;;;;;;;;;;;;;;5074425;28;20182;-83
2023/03/20 10:21:33;;;;;;;7.20;3.72;;;;;;;;;;5073481;28;19913;-82
2023/03/20 10:24:00;;;;;;;5.13;3.53;;;;;;;;;;5071776;28;20376;-83
2023/03/20 10:26:26;;;;;;;5.38;3.42;;;;;;;;;;5058305;28;20031;-82
2023/03/20 10:28:51;;;;;;;;;;;;;;;;;;5073161;28;20028;-83
2023/03/20 10:31:21;;;;;;;5.85;3.65;;;;;;;;;;5073868;28;19963;-82
2023/03/20 10:34:05;;;;;;;4.45;3.60;;;;;;;;;;5071327;28;20063;-81
2023/03/20 10:36:54;;;;;;;4.97;3.45;;;;;;;;;;5074589;28;20033;-82
2023/03/20 10:39:23;;;;;;;6.43;3.63;;;;;;;;;;5052896;28;20101;-82
2023/03/20 10:41:52;;;;;;;5.90;4.03;;;;;;;;;;5054799;28;20086;-84
2023/03/20 10:44:31;;;;;;;5.57;4.10;;;;;;;;;;5071532;28;20063;-83
2023/03/20 10:46:57;;;;;;;9.43;4.20;;;;;;;;;;5073709;28;20044;-83
2023/03/20 10:49:23;;;;;;;;;;;;;;;;;;5071093;28;20021;-81
2023/03/20 10:51:50;;;;;;;5.70;3.85;;;;;;;;;;5073637;28;20301;-82
2023/03/20 10:54:36;;;;;;;5.80;4.00;;;;;;;;;;5071184;28;20035;-82
2023/03/20 10:57:02;;;;;;;9.60;4.75;;;;;;;;;;5073728;28;20411;-83
2023/03/20 10:59:41;;;;;;;8.38;4.82;;;;;;;;;;5061129;28;20391;-86
2023/03/20 11:02:10;;;;;;;5.88;4.15;;;;;;;;;;5054976;28;20057;-83
2023/03/20 11:04:35;;;;;;;7.65;4.80;;;;;;;;;;5058704;28;20036;-83
2023/03/20 11:07:04;;;;;;;8.02;4.95;;;;;;;;;;5055452;28;20037;-84
2023/03/20 11:09:30;;;;;;;7.75;4.82;;;;;;;;;;5073788;28;20093;-83
2023/03/20 11:11:56;;;;;;;9.77;4.15;;;;;;;;;;5073485;28;20033;-83
2023/03/20 11:14:22;;;;;;;8.25;4.38;;;;;;;;;;5038747;28;20035;-82
2023/03/20 11:16:48;;;;;;;8.35;4.50;;;;;;;;;;5061664;28;20044;-83
2023/03/20 11:19:14;;;;;;;9.27;4.68;;;;;;;;;;5071867;28;20028;-83
2023/03/20 11:21:44;;;;;;;8.48;5.10;;;;;;;;;;5072507;28;20323;-81
2023/03/20 11:24:20;;;;;;;8.52;4.50;;;;;;;;;;5071626;28;20028;-82
2023/03/20 11:26:46;;;;;;;;;;;;;;;;;;5063538;28;20038;-82
2023/03/20 11:29:16;;;;;;;11.57;5.35;;;;;;;;;;5072008;28;20010;-81
2023/03/20 11:31:42;;;;;;;8.63;4.78;;;;;;;;;;5058720;28;20408;-84
2023/03/20 11:34:10;;;;;;;7.75;4.50;;;;;;;;;;5070718;28;20031;-83
2023/03/20 11:36:38;;;;;;;7.90;4.47;;;;;;;;;;5072534;28;20122;-83
2023/03/20 11:39:12;;;;;;;7.45;4.50;;;;;;;;;;5073182;28;20036;-83
2023/03/20 11:41:57;;;;;;;6.85;4.60;;;;;;;;;;5070982;28;20440;-83
2023/03/20 11:44:23;;;;;;;7.63;4.50;;;;;;;;;;5070751;28;20086;-82
2023/03/20 11:47:02;;;;;;;8.00;5.10;;;;;;;;;;5085172;28;20024;-83
2023/03/20 11:49:28;;;;;;;8.65;4.80;;;;;;;;;;5072468;28;20029;-81
2023/03/20 11:51:54;;;;;;;8.43;4.97;;;;;;;;;;5053548;28;20039;-81
2023/03/20 11:54:21;;;;;;;6.60;4.72;;;;;;;;;;5070746;28;20086;-81
2023/03/20 11:56:51;;;;;;;7.05;4.70;;;;;;;;;;5070192;28;20112;-81
2023/03/20 11:59:17;;;;;;;8.48;4.43;;;;;;;;;;5046190;28;20036;-81
2023/03/20 12:01:45;;;;;;;6.85;4.03;;;;;;;;;;5070077;28;20055;-83
2023/03/20 12:04:12;;;;;;;5.47;3.95;;;;;;;;;;5055051;28;20131;-83
2023/03/20 12:06:54;;;;;;;11.30;4.97;;;;;;;;;;5070697;28;20028;-83
2023/03/20 12:09:26;;;;;;;7.43;5.10;;;;;;;;;;5070640;28;20039;-82
2023/03/20 12:11:52;;;;;;;14.07;6.90;;;;;;;;;;5071045;28;20059;-82
2023/03/20 12:14:29;;;;;;;11.85;6.20;;;;;;;;;;5071368;28;20025;-82
2023/03/20 12:16:59;;;;;;;9.45;5.30;;;;;;;;;;5053173;28;20392;-82
2023/03/20 12:19:24;;;;;;;11.25;5.43;;;;;;;;;;5071341;28;20027;-82
2023/03/20 12:21:50;;;;;;;10.73;5.50;;;;;;;;;;5053307;28;20464;-82
2023/03/20 12:24:34;;;;;;;7.75;4.93;;;;;;;;;;5071286;28;20032;-82
2023/03/20 12:27:06;;;;;;;8.65;4.85;;;;;;;;;;5071084;28;20067;-82
2023/03/20 12:29:37;;;;;;;8.95;5.70;;;;;;;;;;5054609;28;20029;-82
2023/03/20 12:32:05;;;;;;;7.68;5.22;;;;;;;;;;5054071;28;20034;-82
2023/03/20 12:34:31;;;;;;;10.30;5.55;;;;;;;;;;5055173;28;20119;-82
2023/03/20 12:36:57;;;;;;;7.65;4.70;;;;;;;;;;5054192;28;20068;-83
2023/03/20 12:39:23;;;;;;;12.18;4.68;;;;;;;;;;5034328;28;20029;-83
2023/03/20 12:41:55;;;;;;;7.22;4.32;;;;;;;;;;5043111;28;20085;-82
2023/03/20 12:44:29;;;;;;;10.43;4.80;;;;;;;;;;5031624;28;20080;-83
2023/03/20 12:47:12;;;;;;;10.82;5.15;;;;;;;;;;5030700;28;20025;-82
2023/03/20 12:49:43;;;;;;;7.68;4.65;;;;;;;;;;5014193;28;20511;-82
2023/03/20 12:52:47;;;;;;;8.13;4.68;;;;;;;;;;4998039;28;20041;-84
2023/03/20 12:55:31;;;;;;;7.30;4.60;;;;;;;;;;4954601;28;20030;-83
2023/03/20 12:58:02;;;;;;;7.07;4.80;;;;;;;;;;4949943;28;20037;-81
2023/03/20 13:00:30;;;;;;;6.13;3.78;;;;;;;;;;5009310;28;20041;-84
2023/03/20 13:02:56;;;;;;;8.15;3.90;;;;;;;;;;5030473;28;20029;-81
2023/03/20 13:05:47;;;;;;;13.77;4.82;;;;;;;;;;5031676;28;20079;-83
2023/03/20 13:08:16;;;;;;;8.18;5.07;;;;;;;;;;5029745;28;20449;-83
2023/03/20 13:10:51;;;;;;;6.90;4.40;;;;;;;;;;5031577;28;20056;-83
2023/03/20 13:13:35;;;;;;;9.82;4.35;;;;;;;;;;5019769;28;20061;-82
2023/03/20 13:16:27;;;;;;;6.18;3.70;;;;;;;;;;5029934;28;20510;-83
2023/03/20 13:18:58;;;;;;;7.35;4.32;;;;;;;;;;5029505;28;20037;-83
2023/03/20 13:21:26;;;;;;;6.88;4.38;;;;;;;;;;5010463;28;20029;-82
2023/03/20 13:23:52;;;;;;;10.75;4.00;;;;;;;;;;5025061;28;20029;-82
2023/03/20 13:26:20;;;;;;;7.00;4.60;;;;;;;;;;5031174;28;20089;-81
2023/03/20 13:28:46;;;;;;;9.88;4.03;;;;;;;;;;5029739;28;20038;-81
2023/03/20 13:31:20;;;;;;;9.68;4.78;;;;;;;;;;5031598;28;20048;-81
2023/03/20 13:33:51;;;;;;;12.00;5.70;;;;;;;;;;5030064;28;20393;-82
2023/03/20 13:36:35;;;;;;;8.85;4.10;;;;;;;;;;5029490;28;20116;-83
2023/03/20 13:39:11;;;;;;;8.82;4.78;;;;;;;;;;5029764;28;20056;-81
2023/03/20 13:41:36;;;;;;;7.18;4.57;;;;;;;;;;5046994;28;20067;-82
2023/03/20 13:44:03;;;;;;;10.73;5.07;;;;;;;;;;5033717;28;20041;-82
2023/03/20 13:46:57;;;;;;;9.45;4.70;;;;;;;;;;5034763;28;20056;-82
2023/03/20 13:49:30;;;;;;;13.18;5.30;;;;;;;;;;5049473;28;20041;-84
2023/03/20 13:51:59;;;;;;;9.38;4.90;;;;;;;;;;5053070;28;20115;-80
2023/03/20 13:54:36;;;;;;;6.00;3.80;;;;;;;;;;5054469;28;20075;-82
2023/03/20 13:57:16;;;;;;;9.15;4.13;;;;;;;;;;5042313;28;20450;-82
2023/03/20 13:59:41;;;;;;;10.88;4.68;;;;;;;;;;5053626;28;20041;-81
2023/03/20 14:02:26;;;;;;;8.07;4.22;;;;;;;;;;5054144;28;20029;-81
2023/03/20 14:04:53;;;;;;;7.47;3.88;;;;;;;;;;5053969;28;20032;-82
2023/03/20 14:07:29;;;;;;;9.93;4.10;;;;;;;;;;5052697;28;20024;-81
2023/03/20 14:09:56;;;;;;;8.88;4.03;;;;;;;;;;5033585;28;20037;-82
2023/03/20 14:12:25;;;;;;;9.05;4.30;;;;;;;;;;5063013;28;20037;-82
2023/03/20 14:14:57;;;;;;;8.88;4.25;;;;;;;;;;5052930;28;20037;-81
2023/03/20 14:17:26;;;;;;;13.15;6.80;;;;;;;;;;5053275;28;20041;-81
2023/03/20 14:19:51;;;;;;;11.95;4.80;;;;;;;;;;5054041;28;20447;-81
2023/03/20 14:22:18;;;;;;;10.00;4.18;;;;;;;;;;5034843;28;20064;-81
2023/03/20 14:25:05;;;;;;;8.75;4.35;;;;;;;;;;5053320;28;20035;-81
2023/03/20 14:27:33;;;;;;;9.45;4.13;;;;;;;;;;5052575;28;20075;-83
2023/03/20 14:30:19;;;;;;;8.32;4.50;;;;;;;;;;5052529;28;20120;-83
2023/03/20 14:32:51;;;;;;;8.57;4.38;;;;;;;;;;5053713;28;20021;-83
2023/03/20 14:35:16;;;;;;;10.90;4.40;;;;;;;;;;5053692;28;20396;-83
2023/03/20 14:37:42;;;;;;;;;;;;;;;;;;5053500;28;20024;-82
2023/03/20 14:40:15;;;;;;;7.75;3.95;;;;;;;;;;5058745;28;19965;-82
2023/03/20 14:42:51;;;;;;;7.70;4.18;;;;;;;;;;5056212;28;20507;-82
2023/03/20 14:45:25;;;;;;;9.82;4.47;;;;;;;;;;5073378;28;20086;-82
2023/03/20 14:47:56;;;;;;;10.20;4.40;;;;;;;;;;5056707;28;20036;-82
2023/03/20 14:50:24;;;;;;;9.90;4.15;;;;;;;;;;5044677;28;20032;-82
2023/03/20 14:53:06;;;;;;;9.80;4.65;;;;;;;;;;5094027;28;20385;-83
2023/03/20 14:55:33;;;;;;;10.07;4.47;;;;;;;;;;5043920;28;20033;-81